createdAt,value
2016-07-26T00:00:25.060Z,22.15
2016-07-26T00:01:26.463Z,22.2
2016-07-26T00:02:26.452Z,22.21
2016-07-26T00:04:25.742Z,22.21
2016-07-26T00:05:26.428Z,22.3
2016-07-26T00:06:25.699Z,22.27
2016-07-26T00:07:25.045Z,22.22
2016-07-26T00:08:26.384Z,22.24
2016-07-26T00:09:26.454Z,22.12
2016-07-26T00:10:26.385Z,22.25
2016-07-26T00:11:26.351Z,22.35
2016-07-26T00:12:26.345Z,22.37
2016-07-26T00:13:25.615Z,22.25
2016-07-26T00:14:26.329Z,22.12
2016-07-26T00:15:26.407Z,22.32
2016-07-26T00:16:26.317Z,22.33
2016-07-26T00:17:26.324Z,22.24
2016-07-26T00:19:26.281Z,22.22
2016-07-26T00:20:25.577Z,22.24
2016-07-26T00:21:26.262Z,22.21
2016-07-26T00:22:25.536Z,22.18
2016-07-26T00:23:26.257Z,22.25
2016-07-26T00:24:25.519Z,22.3
2016-07-26T00:25:25.506Z,22.15
2016-07-26T00:26:26.204Z,22.25
2016-07-26T00:27:25.483Z,22.24
2016-07-26T00:28:25.475Z,22.2
2016-07-26T00:29:26.173Z,22.1
2016-07-26T00:30:26.180Z,22.15
2016-07-26T00:31:26.155Z,22.1
2016-07-26T00:32:26.156Z,22.08
2016-07-26T00:33:25.426Z,22.03
2016-07-26T00:34:26.135Z,22.11
2016-07-26T00:35:25.406Z,22.12
2016-07-26T00:36:26.101Z,22.05
2016-07-26T00:37:26.107Z,22.1
2016-07-26T00:38:26.083Z,22.1
2016-07-26T00:39:26.119Z,22.1
2016-07-26T00:40:25.429Z,22.11
2016-07-26T00:41:25.360Z,22.2
2016-07-26T00:42:25.397Z,22.21
2016-07-26T00:43:25.320Z,22.21
2016-07-26T00:44:25.321Z,22.21
2016-07-26T00:45:25.320Z,22.22
2016-07-26T00:46:26.005Z,22.1
2016-07-26T00:47:26.011Z,22.12
2016-07-26T00:48:25.334Z,22.08
2016-07-26T00:49:25.977Z,22.24
2016-07-26T00:50:24.543Z,22.18
2016-07-26T00:51:25.978Z,22.08
2016-07-26T00:52:25.947Z,22.1
2016-07-26T00:53:25.927Z,22.11
2016-07-26T00:54:25.258Z,22.22
2016-07-26T00:55:25.198Z,22.27
2016-07-26T00:56:24.470Z,22.32
2016-07-26T00:57:25.177Z,22.27
2016-07-26T00:58:25.877Z,22.36
2016-07-26T00:59:25.898Z,22.22
2016-07-26T01:00:25.194Z,22.27
2016-07-26T01:01:25.870Z,22.17
2016-07-26T01:02:25.846Z,22.18
2016-07-26T01:03:25.835Z,22.1
2016-07-26T01:04:25.118Z,22.18
2016-07-26T01:05:25.093Z,22.21
2016-07-26T01:06:24.380Z,22.22
2016-07-26T01:07:25.801Z,22.05
2016-07-26T01:08:25.887Z,21.96
2016-07-26T01:09:25.057Z,22.08
2016-07-26T01:10:25.805Z,21.93
2016-07-26T01:11:25.743Z,21.95
2016-07-26T01:12:25.129Z,21.99
2016-07-26T01:13:25.752Z,21.84
2016-07-26T01:14:25.727Z,21.96
2016-07-26T01:15:25.717Z,21.96
2016-07-26T01:16:25.701Z,22
2016-07-26T01:17:25.697Z,21.97
2016-07-26T01:18:24.966Z,21.83
2016-07-26T01:19:25.682Z,21.84
2016-07-26T01:20:25.657Z,21.79
2016-07-26T01:21:24.949Z,21.79
2016-07-26T01:22:25.650Z,21.8
2016-07-26T01:23:25.625Z,21.71
2016-07-26T01:24:25.614Z,21.76
2016-07-26T01:25:24.903Z,21.79
2016-07-26T01:26:25.592Z,21.74
2016-07-26T01:27:25.603Z,21.73
2016-07-26T01:28:24.141Z,21.81
2016-07-26T01:29:25.563Z,21.65
2016-07-26T01:30:24.846Z,21.66
2016-07-26T01:31:25.557Z,21.54
2016-07-26T01:32:24.822Z,21.58
2016-07-26T01:33:24.849Z,21.58
2016-07-26T01:34:25.554Z,21.56
2016-07-26T01:35:25.504Z,21.62
2016-07-26T01:36:25.495Z,21.59
2016-07-26T01:37:25.478Z,21.71
2016-07-26T01:38:25.527Z,21.65
2016-07-26T01:39:25.465Z,21.65
2016-07-26T01:40:25.455Z,21.65
2016-07-26T01:41:24.729Z,21.61
2016-07-26T01:42:25.444Z,21.61
2016-07-26T01:43:25.426Z,21.62
2016-07-26T01:44:25.402Z,21.49
2016-07-26T01:45:25.606Z,21.52
2016-07-26T01:46:25.394Z,21.49
2016-07-26T01:47:25.380Z,21.41
2016-07-26T01:48:25.372Z,21.58
2016-07-26T01:49:25.358Z,21.5
2016-07-26T01:50:25.348Z,21.47
2016-07-26T01:51:24.628Z,21.54
2016-07-26T01:52:25.325Z,21.49
2016-07-26T01:53:25.316Z,21.41
2016-07-26T01:54:24.598Z,21.44
2016-07-26T01:55:25.316Z,21.46
2016-07-26T01:56:25.285Z,21.44
2016-07-26T01:57:25.289Z,21.52
2016-07-26T01:58:25.264Z,21.33
2016-07-26T01:59:25.255Z,21.34
2016-07-26T02:00:25.244Z,21.25
2016-07-26T02:01:25.253Z,21.21
2016-07-26T02:02:24.505Z,21.24
2016-07-26T02:03:25.214Z,21.18
2016-07-26T02:04:25.206Z,21.26
2016-07-26T02:05:25.239Z,21.13
2016-07-26T02:06:25.182Z,21.18
2016-07-26T02:07:24.476Z,21.28
2016-07-26T02:08:25.157Z,21.06
2016-07-26T02:09:24.469Z,21.26
2016-07-26T02:10:25.130Z,21.29
2016-07-26T02:11:25.112Z,21.25
2016-07-26T02:12:25.120Z,21.31
2016-07-26T02:13:25.196Z,21.26
2016-07-26T02:14:25.101Z,21.26
2016-07-26T02:15:24.370Z,21.37
2016-07-26T02:16:24.356Z,21.28
2016-07-26T02:17:25.071Z,21.29
2016-07-26T02:18:25.078Z,21.26
2016-07-26T02:19:25.051Z,21.29
2016-07-26T02:20:25.037Z,21.43
2016-07-26T02:21:25.011Z,21.46
2016-07-26T02:22:25.010Z,21.43
2016-07-26T02:23:24.997Z,21.46
2016-07-26T02:24:24.980Z,21.4
2016-07-26T02:25:25.030Z,21.43
2016-07-26T02:26:24.964Z,21.4
2016-07-26T02:27:24.957Z,21.39
2016-07-26T02:28:24.939Z,21.43
2016-07-26T02:29:24.940Z,21.41
2016-07-26T02:30:24.221Z,21.47
2016-07-26T02:31:24.920Z,21.39
2016-07-26T02:32:24.899Z,21.46
2016-07-26T02:33:24.898Z,21.4
2016-07-26T02:34:24.157Z,21.22
2016-07-26T02:35:24.152Z,21.39
2016-07-26T02:36:24.134Z,21.26
2016-07-26T02:37:24.853Z,21.33
2016-07-26T02:38:24.832Z,21.26
2016-07-26T02:39:24.832Z,21.28
2016-07-26T02:40:24.823Z,21.22
2016-07-26T02:41:24.802Z,21.13
2016-07-26T02:42:24.785Z,21.17
2016-07-26T02:43:24.791Z,21.06
2016-07-26T02:44:24.777Z,21.06
2016-07-26T02:45:24.046Z,21.02
2016-07-26T02:46:24.752Z,21.1
2016-07-26T02:47:24.022Z,21
2016-07-26T02:48:24.092Z,20.97
2016-07-26T02:49:24.714Z,21.03
2016-07-26T02:50:24.801Z,21.04
2016-07-26T02:51:24.696Z,21.07
2016-07-26T02:52:23.957Z,21.19
2016-07-26T02:53:23.958Z,21.1
2016-07-26T02:54:24.713Z,21.09
2016-07-26T02:55:23.943Z,21
2016-07-26T02:56:24.677Z,20.94
2016-07-26T02:57:24.633Z,20.92
2016-07-26T02:58:24.610Z,20.94
2016-07-26T02:59:23.890Z,20.84
2016-07-26T03:00:23.929Z,20.74
2016-07-26T03:01:24.580Z,20.82
2016-07-26T03:02:23.861Z,20.79
2016-07-26T03:03:24.572Z,20.82
2016-07-26T03:04:24.113Z,20.85
2016-07-26T03:05:24.538Z,20.82
2016-07-26T03:06:24.546Z,20.84
2016-07-26T03:07:24.544Z,20.84
2016-07-26T03:08:24.520Z,20.89
2016-07-26T03:09:24.495Z,20.97
2016-07-26T03:10:24.488Z,20.92
2016-07-26T03:11:24.483Z,21.04
2016-07-26T03:12:24.464Z,20.89
2016-07-26T03:13:23.739Z,20.78
2016-07-26T03:14:24.440Z,20.78
2016-07-26T03:15:23.000Z,20.74
2016-07-26T03:16:23.712Z,20.76
2016-07-26T03:17:23.697Z,20.69
2016-07-26T03:18:24.388Z,20.72
2016-07-26T03:19:23.243Z,20.84
2016-07-26T03:20:24.379Z,20.88
2016-07-26T03:21:23.653Z,20.85
2016-07-26T03:22:24.360Z,20.84
2016-07-26T03:23:23.652Z,20.7
2016-07-26T03:24:24.332Z,20.81
2016-07-26T03:25:24.316Z,20.79
2016-07-26T03:26:23.582Z,20.73
2016-07-26T03:27:24.294Z,20.74
2016-07-26T03:28:24.318Z,20.7
2016-07-26T03:29:24.258Z,20.72
2016-07-26T03:30:24.257Z,20.82
2016-07-26T03:31:24.261Z,20.84
2016-07-26T03:32:24.248Z,20.73
2016-07-26T03:33:24.222Z,20.72
2016-07-26T03:34:23.766Z,20.85
2016-07-26T03:35:23.528Z,20.84
2016-07-26T03:36:24.201Z,20.87
2016-07-26T03:37:24.189Z,20.82
2016-07-26T03:38:24.172Z,20.69
2016-07-26T03:39:24.169Z,20.7
2016-07-26T03:40:24.147Z,20.69
2016-07-26T03:41:24.131Z,20.67
2016-07-26T03:42:24.131Z,20.64
2016-07-26T03:43:24.113Z,20.63
2016-07-26T03:44:24.122Z,20.54
2016-07-26T03:45:23.382Z,20.54
2016-07-26T03:46:24.084Z,20.54
2016-07-26T03:47:23.353Z,20.52
2016-07-26T03:48:24.067Z,20.52
2016-07-26T03:49:22.913Z,20.6
2016-07-26T03:50:24.050Z,20.54
2016-07-26T03:51:24.043Z,20.63
2016-07-26T03:52:23.302Z,20.49
2016-07-26T03:53:24.007Z,20.35
2016-07-26T03:54:23.986Z,20.4
2016-07-26T03:55:23.970Z,20.51
2016-07-26T03:56:23.993Z,20.48
2016-07-26T03:57:23.973Z,20.38
2016-07-26T03:58:23.942Z,20.38
2016-07-26T03:59:23.995Z,20.35
2016-07-26T04:00:22.490Z,20.38
2016-07-26T04:01:23.919Z,20.36
2016-07-26T04:02:23.914Z,20.36
2016-07-26T04:03:23.947Z,20.36
2016-07-26T04:05:23.908Z,20.41
2016-07-26T04:06:23.862Z,20.29
2016-07-26T04:07:23.858Z,20.36
2016-07-26T04:08:23.834Z,20.33
2016-07-26T04:09:23.865Z,20.38
2016-07-26T04:10:23.099Z,20.33
2016-07-26T04:11:23.798Z,20.32
2016-07-26T04:12:23.789Z,20.22
2016-07-26T04:13:23.795Z,20.28
2016-07-26T04:14:23.775Z,20.32
2016-07-26T04:15:23.044Z,20.28
2016-07-26T04:16:23.750Z,20.41
2016-07-26T04:17:23.728Z,20.44
2016-07-26T04:18:23.734Z,20.41
2016-07-26T04:20:23.704Z,20.36
2016-07-26T04:21:23.691Z,20.41
2016-07-26T04:22:23.679Z,20.4
2016-07-26T04:23:23.683Z,20.44
2016-07-26T04:24:22.942Z,20.36
2016-07-26T04:25:23.648Z,20.22
2016-07-26T04:26:22.918Z,20.33
2016-07-26T04:27:23.618Z,20.26
2016-07-26T04:28:23.603Z,20.29
2016-07-26T04:29:23.593Z,20.33
2016-07-26T04:30:23.590Z,20.26
2016-07-26T04:31:23.568Z,20.33
2016-07-26T04:32:23.593Z,20.29
2016-07-26T04:33:23.563Z,20.22
2016-07-26T04:35:23.542Z,20.35
2016-07-26T04:36:23.514Z,20.41
2016-07-26T04:37:23.512Z,20.4
2016-07-26T04:38:22.816Z,20.28
2016-07-26T04:39:23.474Z,20.38
2016-07-26T04:40:23.482Z,20.32
2016-07-26T04:41:23.452Z,20.23
2016-07-26T04:42:23.442Z,20.32
2016-07-26T04:43:22.719Z,20.36
2016-07-26T04:44:22.719Z,20.43
2016-07-26T04:45:23.419Z,20.29
2016-07-26T04:46:21.970Z,20.33
2016-07-26T04:47:23.401Z,20.26
2016-07-26T04:48:22.711Z,20.2
2016-07-26T04:50:23.350Z,20.33
2016-07-26T04:51:23.343Z,20.36
2016-07-26T04:52:23.339Z,20.32
2016-07-26T04:53:22.617Z,20.41
2016-07-26T04:54:23.331Z,20.31
2016-07-26T04:55:22.587Z,20.4
2016-07-26T04:56:23.288Z,20.4
2016-07-26T04:57:23.268Z,20.4
2016-07-26T04:58:23.300Z,20.36
2016-07-26T04:59:23.263Z,20.41
2016-07-26T05:00:23.272Z,20.49
2016-07-26T05:01:22.523Z,20.43
2016-07-26T05:02:23.225Z,20.43
2016-07-26T05:03:23.199Z,20.47
2016-07-26T05:05:23.189Z,20.58
2016-07-26T05:06:23.169Z,20.57
2016-07-26T05:07:23.161Z,20.51
2016-07-26T05:08:22.429Z,20.66
2016-07-26T05:09:23.150Z,20.74
2016-07-26T05:10:23.141Z,20.78
2016-07-26T05:11:22.408Z,20.78
2016-07-26T05:12:23.160Z,20.76
2016-07-26T05:13:22.369Z,20.84
2016-07-26T05:14:23.089Z,20.82
2016-07-26T05:15:22.371Z,20.82
2016-07-26T05:16:23.071Z,20.82
2016-07-26T05:17:23.038Z,20.78
2016-07-26T05:18:23.030Z,20.69
2016-07-26T05:20:23.059Z,20.69
2016-07-26T05:21:23.000Z,20.54
2016-07-26T05:22:22.994Z,20.6
2016-07-26T05:23:23.024Z,20.7
2016-07-26T05:24:22.963Z,20.72
2016-07-26T05:25:22.964Z,20.7
2016-07-26T05:26:22.947Z,20.7
2016-07-26T05:27:22.942Z,20.6
2016-07-26T05:28:22.937Z,20.69
2016-07-26T05:29:22.216Z,20.82
2016-07-26T05:30:22.905Z,20.85
2016-07-26T05:31:23.112Z,20.76
2016-07-26T05:32:22.900Z,20.76
2016-07-26T05:34:22.858Z,20.85
2016-07-26T05:35:22.858Z,20.84
2016-07-26T05:36:22.858Z,20.84
2016-07-26T05:37:22.826Z,20.91
2016-07-26T05:38:22.831Z,20.84
2016-07-26T05:39:22.810Z,20.84
2016-07-26T05:40:21.361Z,20.79
2016-07-26T05:41:22.789Z,20.82
2016-07-26T05:42:22.790Z,20.79
2016-07-26T05:43:22.765Z,20.79
2016-07-26T05:44:22.756Z,20.95
2016-07-26T05:45:22.740Z,21.03
2016-07-26T05:46:22.010Z,20.91
2016-07-26T05:47:21.996Z,21.06
2016-07-26T05:48:22.712Z,21.09
2016-07-26T05:50:22.684Z,21.04
2016-07-26T05:51:21.970Z,21.06
2016-07-26T05:52:22.671Z,21.07
2016-07-26T05:53:22.740Z,21.24
2016-07-26T05:54:21.940Z,21.19
2016-07-26T05:55:22.729Z,21.15
2016-07-26T05:56:22.617Z,21.06
2016-07-26T05:57:21.898Z,20.94
2016-07-26T05:58:21.901Z,21.13
2016-07-26T05:59:21.873Z,20.99
2016-07-26T06:00:22.575Z,21.06
2016-07-26T06:01:22.612Z,21.07
2016-07-26T06:02:22.576Z,21.15
2016-07-26T06:03:21.875Z,21.19
2016-07-26T06:05:22.519Z,21.28
2016-07-26T06:06:22.516Z,21.26
2016-07-26T06:07:21.828Z,21.29
2016-07-26T06:08:22.482Z,21.37
2016-07-26T06:09:22.498Z,21.37
2016-07-26T06:10:22.480Z,21.44
2016-07-26T06:11:22.462Z,21.5
2016-07-26T06:12:21.751Z,21.49
2016-07-26T06:13:22.484Z,21.56
2016-07-26T06:14:22.431Z,21.58
2016-07-26T06:15:22.420Z,21.46
2016-07-26T06:16:22.405Z,21.52
2016-07-26T06:17:22.416Z,21.46
2016-07-26T06:18:22.391Z,21.52
2016-07-26T06:20:22.350Z,21.43
2016-07-26T06:21:21.650Z,21.33
2016-07-26T06:22:22.335Z,21.41
2016-07-26T06:23:22.323Z,21.4
2016-07-26T06:24:21.650Z,21.5
2016-07-26T06:25:22.331Z,21.49
2016-07-26T06:26:21.577Z,21.59
2016-07-26T06:27:22.311Z,21.76
2016-07-26T06:28:22.282Z,21.79
2016-07-26T06:29:22.274Z,21.76
2016-07-26T06:30:22.258Z,21.99
2016-07-26T06:31:21.530Z,21.95
2016-07-26T06:32:20.818Z,22.12
2016-07-26T06:33:22.235Z,22.12
2016-07-26T06:35:22.221Z,22.06
2016-07-26T06:36:21.527Z,22.15
2016-07-26T06:37:22.183Z,22.17
2016-07-26T06:38:22.171Z,22.29
2016-07-26T06:39:22.174Z,22.36
2016-07-26T06:40:21.477Z,22.4
2016-07-26T06:41:22.141Z,22.51
2016-07-26T06:42:22.141Z,22.39
2016-07-26T06:43:21.406Z,22.4
2016-07-26T06:44:22.108Z,22.42
2016-07-26T06:45:21.385Z,22.47
2016-07-26T06:46:22.111Z,22.45
2016-07-26T06:47:21.371Z,22.42
2016-07-26T06:48:21.388Z,22.51
2016-07-26T06:50:22.095Z,22.52
2016-07-26T06:51:21.398Z,22.37
2016-07-26T06:52:20.608Z,22.55
2016-07-26T06:53:22.027Z,22.42
2016-07-26T06:54:22.019Z,22.43
2016-07-26T06:55:21.295Z,22.43
2016-07-26T06:56:21.286Z,22.54
2016-07-26T06:57:21.277Z,22.67
2016-07-26T06:58:22.015Z,22.74
2016-07-26T06:59:21.254Z,22.72
2016-07-26T07:00:21.249Z,22.47
2016-07-26T07:01:21.956Z,22.59
2016-07-26T07:02:21.941Z,22.61
2016-07-26T07:03:21.938Z,22.59
2016-07-26T07:05:21.209Z,22.65
2016-07-26T07:06:21.184Z,22.76
2016-07-26T07:07:21.897Z,22.59
2016-07-26T07:08:21.167Z,22.67
2016-07-26T07:09:21.886Z,22.62
2016-07-26T07:10:21.871Z,22.77
2016-07-26T07:11:21.210Z,22.82
2016-07-26T07:12:21.135Z,22.87
2016-07-26T07:13:21.139Z,22.89
2016-07-26T07:14:21.823Z,22.94
2016-07-26T07:15:21.119Z,22.91
2016-07-26T07:16:21.815Z,23.04
2016-07-26T07:17:21.077Z,23.24
2016-07-26T07:18:21.801Z,23.4
2016-07-26T07:20:21.789Z,23.45
2016-07-26T07:21:21.774Z,23.67
2016-07-26T07:22:21.771Z,23.72
2016-07-26T07:23:21.758Z,23.77
2016-07-26T07:24:21.042Z,23.84
2016-07-26T07:25:21.020Z,23.84
2016-07-26T07:26:21.729Z,24
2016-07-26T07:27:21.002Z,24.07
2016-07-26T07:28:21.697Z,23.95
2016-07-26T07:29:21.711Z,24.06
2016-07-26T07:30:21.690Z,24.14
2016-07-26T07:31:21.678Z,24.28
2016-07-26T07:32:21.693Z,23.99
2016-07-26T07:33:21.671Z,23.91
2016-07-26T07:35:21.639Z,24.1
2016-07-26T07:36:21.635Z,24.15
2016-07-26T07:37:21.638Z,24
2016-07-26T07:38:21.619Z,24.03
2016-07-26T07:39:21.622Z,23.96
2016-07-26T07:40:20.884Z,24.12
2016-07-26T07:41:21.670Z,24.21
2016-07-26T07:42:21.582Z,24.46
2016-07-26T07:43:20.870Z,24.57
2016-07-26T07:44:21.578Z,24.7
2016-07-26T07:45:21.595Z,24.71
2016-07-26T07:46:20.831Z,24.71
2016-07-26T07:47:21.548Z,24.95
2016-07-26T07:48:20.830Z,24.82
2016-07-26T07:50:21.516Z,25
2016-07-26T07:51:21.522Z,25.21
2016-07-26T07:52:21.505Z,25.39
2016-07-26T07:53:20.777Z,25.49
2016-07-26T07:54:21.487Z,25.64
2016-07-26T07:55:21.525Z,25.62
2016-07-26T07:56:20.757Z,25.54
2016-07-26T07:57:20.827Z,25.51
2016-07-26T07:58:21.466Z,25.54
2016-07-26T07:59:21.459Z,25.56
2016-07-26T08:00:20.738Z,25.66
2016-07-26T08:01:20.736Z,25.66
2016-07-26T08:02:20.716Z,25.64
2016-07-26T08:03:20.700Z,25.47
2016-07-26T08:05:21.409Z,25.94
2016-07-26T08:06:21.399Z,26.04
2016-07-26T08:07:21.403Z,25.91
2016-07-26T08:08:20.668Z,25.99
2016-07-26T08:09:21.389Z,26.13
2016-07-26T08:10:20.662Z,26.27
2016-07-26T08:11:21.367Z,26.15
2016-07-26T08:12:20.639Z,26.29
2016-07-26T08:13:21.359Z,26.15
2016-07-26T08:14:21.344Z,26.1
2016-07-26T08:15:21.333Z,26.11
2016-07-26T08:16:19.909Z,25.95
2016-07-26T08:17:20.603Z,25.92
2016-07-26T08:18:21.304Z,26.1
2016-07-26T08:20:21.298Z,26.51
2016-07-26T08:21:21.297Z,26.67
2016-07-26T08:22:21.294Z,26.69
2016-07-26T08:23:20.570Z,26.66
2016-07-26T08:24:21.271Z,26.64
2016-07-26T08:25:20.543Z,26.67
2016-07-26T08:26:21.331Z,26.29
2016-07-26T08:27:21.258Z,25.77
2016-07-26T08:28:19.829Z,25.99
2016-07-26T08:29:20.531Z,26.38
2016-07-26T08:30:21.246Z,26.64
2016-07-26T08:31:21.247Z,26.71
2016-07-26T08:32:20.503Z,26.71
2016-07-26T08:33:21.203Z,26.47
2016-07-26T08:35:21.224Z,26.11
2016-07-26T08:36:21.194Z,26.08
2016-07-26T08:37:20.476Z,26.13
2016-07-26T08:38:21.230Z,26.04
2016-07-26T08:39:20.465Z,25.58
2016-07-26T08:40:20.468Z,25.79
2016-07-26T08:41:20.484Z,25.84
2016-07-26T08:42:21.165Z,26.38
2016-07-26T08:43:20.441Z,26.84
2016-07-26T08:44:20.447Z,27
2016-07-26T08:45:21.165Z,27.31
2016-07-26T08:46:21.154Z,27.96
2016-07-26T08:47:20.420Z,28.35
2016-07-26T08:48:21.138Z,28.65
2016-07-26T08:50:21.135Z,27.81
2016-07-26T08:51:21.197Z,27.69
2016-07-26T08:52:21.113Z,27.74
2016-07-26T08:53:21.169Z,28.46
2016-07-26T08:54:21.115Z,29.17
2016-07-26T08:55:20.386Z,29.15
2016-07-26T08:56:20.379Z,28.56
2016-07-26T08:57:21.105Z,28.84
2016-07-26T08:58:20.376Z,28.62
2016-07-26T08:59:20.378Z,28.28
2016-07-26T09:00:21.099Z,28.13
2016-07-26T09:01:21.094Z,27.94
2016-07-26T09:02:20.371Z,27.55
2016-07-26T09:03:21.088Z,27.36
2016-07-26T09:05:21.089Z,28.76
2016-07-26T09:06:21.084Z,29.18
2016-07-26T09:07:21.084Z,29.35
2016-07-26T09:08:20.375Z,29.76
2016-07-26T09:09:21.091Z,30.1
2016-07-26T09:10:21.074Z,29.46
2016-07-26T09:11:21.092Z,29.52
2016-07-26T09:12:20.378Z,29.33
2016-07-26T09:13:20.356Z,29.51
2016-07-26T09:14:21.086Z,30.05
2016-07-26T09:15:19.718Z,30.25
2016-07-26T09:16:19.635Z,30.35
2016-07-26T09:17:21.080Z,29.94
2016-07-26T09:18:21.079Z,28.97
2016-07-26T09:20:19.654Z,30.18
2016-07-26T09:21:21.084Z,30.35
2016-07-26T09:22:21.112Z,29.54
2016-07-26T09:23:21.072Z,29.77
2016-07-26T09:24:21.105Z,30.43
2016-07-26T09:25:21.085Z,30.78
2016-07-26T09:26:21.090Z,30.83
2016-07-26T09:27:21.074Z,30.77
2016-07-26T09:28:21.084Z,30.33
2016-07-26T09:29:21.083Z,29.88
2016-07-26T09:30:21.139Z,28.93
2016-07-26T09:31:20.378Z,29.17
2016-07-26T09:32:21.101Z,29.14
2016-07-26T09:33:21.091Z,29.58
2016-07-26T09:35:21.091Z,30.29
2016-07-26T09:36:21.095Z,30.13
2016-07-26T09:37:21.083Z,30.83
2016-07-26T09:38:21.096Z,31.14
2016-07-26T09:39:20.398Z,31.62
2016-07-26T09:40:21.091Z,31.7
2016-07-26T09:41:21.171Z,31.89
2016-07-26T09:42:20.367Z,31.95
2016-07-26T09:43:21.164Z,32.31
2016-07-26T09:44:19.667Z,32.54
2016-07-26T09:45:20.414Z,32.32
2016-07-26T09:46:21.112Z,32.54
2016-07-26T09:47:21.106Z,32.94
2016-07-26T09:48:20.392Z,33.14
2016-07-26T09:50:21.119Z,32.61
2016-07-26T09:51:21.129Z,31.89
2016-07-26T09:52:20.470Z,31.2
2016-07-26T09:53:20.402Z,30.52
2016-07-26T09:54:20.404Z,30.11
2016-07-26T09:55:19.697Z,29.28
2016-07-26T09:56:21.123Z,29.52
2016-07-26T09:57:20.402Z,29.52
2016-07-26T09:58:20.408Z,29.25
2016-07-26T09:59:21.113Z,29.35
2016-07-26T10:00:21.108Z,29.43
2016-07-26T10:01:20.394Z,29.73
2016-07-26T10:02:20.455Z,29.7
2016-07-26T10:03:21.117Z,29.83
2016-07-26T10:05:21.118Z,30.71
2016-07-26T10:06:21.122Z,30.43
2016-07-26T10:07:21.111Z,30.63
2016-07-26T10:08:21.127Z,31.22
2016-07-26T10:09:21.113Z,31.49
2016-07-26T10:10:21.110Z,31.11
2016-07-26T10:11:21.104Z,30.98
2016-07-26T10:12:20.383Z,30.52
2016-07-26T10:13:21.105Z,30.89
2016-07-26T10:14:21.111Z,31.03
2016-07-26T10:15:21.104Z,30.98
2016-07-26T10:16:21.099Z,31.34
2016-07-26T10:17:19.660Z,31.08
2016-07-26T10:18:21.152Z,30.98
2016-07-26T10:20:21.137Z,31.27
2016-07-26T10:21:21.096Z,31.47
2016-07-26T10:22:21.081Z,31.51
2016-07-26T10:23:20.366Z,31.6
2016-07-26T10:24:21.093Z,31.99
2016-07-26T10:25:20.404Z,32.2
2016-07-26T10:26:20.366Z,32.16
2016-07-26T10:27:21.085Z,32.14
2016-07-26T10:28:21.083Z,32.45
2016-07-26T10:29:20.357Z,32.57
2016-07-26T10:30:21.078Z,32.53
2016-07-26T10:31:21.078Z,32.57
2016-07-26T10:32:21.079Z,32.53
2016-07-26T10:33:20.417Z,32.41
2016-07-26T10:35:20.362Z,32.76
2016-07-26T10:36:20.354Z,32.6
2016-07-26T10:37:20.367Z,32.36
2016-07-26T10:38:20.353Z,32.29
2016-07-26T10:39:21.186Z,32.17
2016-07-26T10:40:20.360Z,31.59
2016-07-26T10:41:19.698Z,31.34
2016-07-26T10:42:21.046Z,30.86
2016-07-26T10:43:21.068Z,30.21
2016-07-26T10:44:20.336Z,29.73
2016-07-26T10:45:21.113Z,29.79
2016-07-26T10:46:21.046Z,29.95
2016-07-26T10:47:21.040Z,30.51
2016-07-26T10:48:21.045Z,31
2016-07-26T10:50:21.025Z,31.38
2016-07-26T10:51:20.319Z,31.48
2016-07-26T10:52:20.380Z,31.82
2016-07-26T10:53:21.048Z,31.79
2016-07-26T10:54:20.347Z,32.02
2016-07-26T10:55:21.030Z,32.36
2016-07-26T10:56:21.027Z,32.51
2016-07-26T10:57:21.027Z,32.36
2016-07-26T10:58:21.028Z,32.54
2016-07-26T10:59:20.306Z,32.66
2016-07-26T11:00:21.008Z,32.69
2016-07-26T11:01:21.021Z,32.5
2016-07-26T11:02:20.285Z,32.48
2016-07-26T11:03:20.285Z,32.43
2016-07-26T11:05:20.998Z,32.6
2016-07-26T11:06:21.009Z,32.61
2016-07-26T11:07:20.266Z,32.63
2016-07-26T11:08:20.984Z,32.95
2016-07-26T11:09:20.998Z,32.91
2016-07-26T11:10:21.036Z,32.97
2016-07-26T11:11:20.977Z,33.19
2016-07-26T11:12:20.978Z,33.09
2016-07-26T11:13:20.985Z,33.16
2016-07-26T11:14:20.247Z,32.94
2016-07-26T11:15:20.964Z,33.13
2016-07-26T11:16:20.966Z,32.78
2016-07-26T11:17:19.546Z,32.72
2016-07-26T11:18:20.235Z,32.51
2016-07-26T11:21:20.954Z,32.05
2016-07-26T11:22:20.956Z,31.99
2016-07-26T11:23:20.945Z,31.89
2016-07-26T11:24:20.229Z,31.69
2016-07-26T11:25:20.951Z,31.44
2016-07-26T11:26:20.940Z,31.11
2016-07-26T11:27:20.931Z,30.86
2016-07-26T11:28:20.210Z,31.03
2016-07-26T11:29:20.206Z,31.04
2016-07-26T11:30:20.203Z,30.93
2016-07-26T11:31:20.207Z,30.92
2016-07-26T11:32:19.499Z,30.77
2016-07-26T11:33:19.557Z,30.58
2016-07-26T11:35:20.919Z,30.18
2016-07-26T11:37:19.793Z,29.61
2016-07-26T11:38:20.898Z,29.84
2016-07-26T11:39:20.220Z,29.91
2016-07-26T11:40:20.176Z,29.77
2016-07-26T11:41:20.886Z,29.74
2016-07-26T11:42:20.873Z,29.62
2016-07-26T11:43:20.877Z,29.77
2016-07-26T11:44:20.875Z,29.81
2016-07-26T11:45:20.228Z,29.84
2016-07-26T11:46:20.158Z,29.76
2016-07-26T11:47:20.228Z,29.86
2016-07-26T11:48:20.874Z,29.68
2016-07-26T11:50:20.854Z,29.61
2016-07-26T11:51:20.932Z,29.37
2016-07-26T11:52:20.848Z,29.4
2016-07-26T11:53:20.838Z,29.37
2016-07-26T11:54:20.836Z,29.4
2016-07-26T11:55:20.117Z,29.25
2016-07-26T11:56:19.389Z,29
2016-07-26T11:57:20.809Z,29.39
2016-07-26T11:58:20.817Z,29.14
2016-07-26T11:59:20.805Z,29.2
2016-07-26T12:00:20.098Z,29.2
2016-07-26T12:01:20.794Z,29.21
2016-07-26T12:02:20.076Z,29.12
2016-07-26T12:03:20.810Z,29.14
2016-07-26T12:05:20.803Z,29.03
2016-07-26T12:06:20.068Z,28.84
2016-07-26T12:07:20.765Z,28.93
2016-07-26T12:08:20.789Z,28.84
2016-07-26T12:09:20.042Z,29
2016-07-26T12:10:20.753Z,29.02
2016-07-26T12:11:20.024Z,29.14
2016-07-26T12:12:20.800Z,29.2
2016-07-26T12:13:20.029Z,29.46
2016-07-26T12:14:20.802Z,29.37
2016-07-26T12:15:20.734Z,29.46
2016-07-26T12:16:20.020Z,29.54
2016-07-26T12:17:20.006Z,29.37
2016-07-26T12:18:19.998Z,29.42
2016-07-26T12:20:19.973Z,29.22
2016-07-26T12:21:20.060Z,29.21
2016-07-26T12:22:20.686Z,28.98
2016-07-26T12:23:20.687Z,29.28
2016-07-26T12:24:20.689Z,29.18
2016-07-26T12:25:20.676Z,29.17
2016-07-26T12:26:20.670Z,29.35
2016-07-26T12:27:19.956Z,29.24
2016-07-26T12:28:19.960Z,29.33
2016-07-26T12:29:20.672Z,29.47
2016-07-26T12:30:19.942Z,29.65
2016-07-26T12:31:20.663Z,30.05
2016-07-26T12:32:19.931Z,30.17
2016-07-26T12:33:20.639Z,30.11
2016-07-26T12:35:20.634Z,30.03
2016-07-26T12:36:19.902Z,30.1
2016-07-26T12:37:20.629Z,30.11
2016-07-26T12:38:19.906Z,29.86
2016-07-26T12:39:20.616Z,29.92
2016-07-26T12:40:19.885Z,29.8
2016-07-26T12:41:20.603Z,29.76
2016-07-26T12:42:20.610Z,29.76
2016-07-26T12:43:20.611Z,29.58
2016-07-26T12:44:19.864Z,29.8
2016-07-26T12:45:20.617Z,29.58
2016-07-26T12:46:20.575Z,29.88
2016-07-26T12:47:20.585Z,29.89
2016-07-26T12:48:20.568Z,29.88
2016-07-26T12:50:19.849Z,29.8
2016-07-26T12:51:20.550Z,30.11
2016-07-26T12:52:20.550Z,30.36
2016-07-26T12:53:19.817Z,30.45
2016-07-26T12:54:20.538Z,30.43
2016-07-26T12:55:20.589Z,30.29
2016-07-26T12:56:19.818Z,30.16
2016-07-26T12:57:19.805Z,30.13
2016-07-26T12:58:19.919Z,29.81
2016-07-26T12:59:19.080Z,29.59
2016-07-26T13:00:19.074Z,29.66
2016-07-26T13:01:20.509Z,29.65
2016-07-26T13:02:20.510Z,29.51
2016-07-26T13:03:20.484Z,29.24
2016-07-26T13:05:19.766Z,29.18
2016-07-26T13:06:20.478Z,29.14
2016-07-26T13:07:20.483Z,29.14
2016-07-26T13:08:19.754Z,29.2
2016-07-26T13:09:19.748Z,29.49
2016-07-26T13:10:19.759Z,29.61
2016-07-26T13:11:19.727Z,29.64
2016-07-26T13:12:20.445Z,29.96
2016-07-26T13:13:19.733Z,29.96
2016-07-26T13:14:19.057Z,29.95
2016-07-26T13:15:19.706Z,29.8
2016-07-26T13:16:20.439Z,29.49
2016-07-26T13:17:20.427Z,29.37
2016-07-26T13:18:20.410Z,29.15
2016-07-26T13:20:19.715Z,29.33
2016-07-26T13:21:20.406Z,29.61
2016-07-26T13:22:20.495Z,29.49
2016-07-26T13:23:20.390Z,29.49
2016-07-26T13:24:20.390Z,29.59
2016-07-26T13:25:20.399Z,29.77
2016-07-26T13:26:20.374Z,29.99
2016-07-26T13:27:19.667Z,29.81
2016-07-26T13:28:19.659Z,29.91
2016-07-26T13:29:19.651Z,29.51
2016-07-26T13:30:20.401Z,29.62
2016-07-26T13:31:20.360Z,29.68
2016-07-26T13:32:18.905Z,29.66
2016-07-26T13:33:19.642Z,29.46
2016-07-26T13:35:20.337Z,29.33
2016-07-26T13:36:19.626Z,29.33
2016-07-26T13:37:20.324Z,29.39
2016-07-26T13:38:19.600Z,29.37